createdAt,value
2017-07-19T00:00:42.044Z,74.60
2017-07-19T00:03:10.375Z,75.20
2017-07-19T00:05:38.719Z,75.20
2017-07-19T00:08:07.074Z,75.00
2017-07-19T00:10:35.431Z,74.50
2017-07-19T00:13:03.766Z,74.50
2017-07-19T00:15:32.280Z,75.00
2017-07-19T00:18:00.604Z,74.40
2017-07-19T00:20:28.951Z,75.00
2017-07-19T00:22:57.318Z,75.20
2017-07-19T00:25:25.645Z,75.50
2017-07-19T00:27:53.993Z,75.50
2017-07-19T00:30:22.337Z,75.30
2017-07-19T00:32:50.691Z,75.00
2017-07-19T00:35:19.028Z,75.60
2017-07-19T00:37:47.386Z,76.20
2017-07-19T00:40:15.734Z,75.90
2017-07-19T00:42:44.097Z,76.10
2017-07-19T00:45:12.454Z,76.20
2017-07-19T00:47:40.790Z,76.00
2017-07-19T00:50:09.152Z,76.10
2017-07-19T00:52:37.503Z,76.30
2017-07-19T00:55:05.862Z,75.90
2017-07-19T00:57:34.200Z,75.50
2017-07-19T01:00:06.076Z,76.20
2017-07-19T01:02:34.478Z,76.30
2017-07-19T01:05:02.843Z,76.20
2017-07-19T01:07:31.175Z,76.70
2017-07-19T01:09:59.577Z,76.70
2017-07-19T01:12:27.920Z,76.30
2017-07-19T01:14:56.264Z,77.10
2017-07-19T01:17:24.624Z,77.10
2017-07-19T01:19:52.975Z,76.50
2017-07-19T01:22:21.348Z,77.00
2017-07-19T01:24:49.715Z,77.00
2017-07-19T01:27:18.081Z,76.10
2017-07-19T01:29:46.411Z,76.50
2017-07-19T01:32:14.770Z,76.50
2017-07-19T01:34:43.108Z,76.30
2017-07-19T01:37:11.482Z,77.80
2017-07-19T01:39:39.823Z,77.80
2017-07-19T01:42:08.185Z,77.50
2017-07-19T01:44:50.188Z,77.30
2017-07-19T01:47:18.561Z,77.40
2017-07-19T01:49:46.906Z,77.10
2017-07-19T01:52:15.275Z,77.00
2017-07-19T01:54:43.614Z,76.50
2017-07-19T01:57:12.010Z,76.50
2017-07-19T01:59:40.387Z,77.30
2017-07-19T02:02:08.732Z,77.10
2017-07-19T02:04:37.099Z,76.90
2017-07-19T02:07:05.433Z,77.10
2017-07-19T02:09:33.786Z,76.80
2017-07-19T02:12:02.162Z,77.00
2017-07-19T02:14:30.512Z,76.70
2017-07-19T02:16:58.847Z,76.90
2017-07-19T02:19:27.212Z,76.70
2017-07-19T02:21:55.621Z,75.70
2017-07-19T02:24:23.962Z,76.40
2017-07-19T02:26:52.312Z,76.30
2017-07-19T02:29:20.642Z,76.70
2017-07-19T02:31:49.002Z,77.30
2017-07-19T02:34:17.340Z,77.20
2017-07-19T02:36:51.941Z,77.50
2017-07-19T02:39:20.279Z,76.80
2017-07-19T02:41:48.628Z,77.10
2017-07-19T02:44:16.955Z,77.70
2017-07-19T02:46:45.310Z,76.60
2017-07-19T02:49:13.628Z,76.70
2017-07-19T02:51:41.952Z,77.30
2017-07-19T02:54:10.297Z,77.00
2017-07-19T02:56:38.652Z,77.00
2017-07-19T02:59:07.001Z,76.70
2017-07-19T03:01:35.331Z,77.10
2017-07-19T03:04:03.671Z,77.30
2017-07-19T03:06:52.681Z,77.20
2017-07-19T03:09:21.036Z,77.80
2017-07-19T03:11:49.376Z,78.50
2017-07-19T03:14:17.717Z,78.00
2017-07-19T03:16:46.175Z,78.50
2017-07-19T03:19:14.528Z,79.50
2017-07-19T03:21:42.861Z,79.10
2017-07-19T03:24:11.201Z,79.10
2017-07-19T03:29:39.000Z,78.90
2017-07-19T03:32:07.350Z,78.50
2017-07-19T03:34:35.676Z,78.30
2017-07-19T03:37:04.030Z,78.30
2017-07-19T03:39:32.365Z,78.00
2017-07-19T03:42:00.710Z,78.50
2017-07-19T03:44:29.037Z,78.20
2017-07-19T03:46:57.389Z,78.50
2017-07-19T03:49:25.714Z,78.00
2017-07-19T03:51:54.066Z,78.00
2017-07-19T03:54:22.392Z,78.00
2017-07-19T03:56:50.737Z,78.50
2017-07-19T03:59:19.068Z,78.20
2017-07-19T04:01:47.731Z,78.30
2017-07-19T04:04:16.098Z,78.70
2017-07-19T04:06:44.424Z,78.40
2017-07-19T04:09:12.782Z,79.00
2017-07-19T04:11:41.176Z,78.40
2017-07-19T04:14:09.546Z,78.10
2017-07-19T04:16:37.890Z,78.50
2017-07-19T04:19:06.248Z,78.70
2017-07-19T04:21:34.578Z,78.70
2017-07-19T04:24:02.932Z,79.20
2017-07-19T04:26:31.307Z,79.30
2017-07-19T04:28:59.668Z,80.90
2017-07-19T04:31:28.058Z,81.70
2017-07-19T04:33:56.394Z,81.70
2017-07-19T04:36:24.763Z,81.70
2017-07-19T04:38:53.190Z,81.50
2017-07-19T04:41:21.589Z,81.40
2017-07-19T04:43:49.908Z,81.30
2017-07-19T04:46:18.270Z,81.00
2017-07-19T04:48:46.597Z,81.70
2017-07-19T04:51:14.949Z,81.30
2017-07-19T04:53:43.333Z,80.50
2017-07-19T04:56:11.707Z,81.30
2017-07-19T04:58:40.025Z,80.90
2017-07-19T05:01:08.350Z,80.70
2017-07-19T05:03:36.703Z,81.10
2017-07-19T05:06:05.024Z,81.90
2017-07-19T05:08:33.538Z,82.00
2017-07-19T05:11:01.862Z,81.80
2017-07-19T05:13:30.210Z,81.80
2017-07-19T05:15:58.530Z,82.10
2017-07-19T05:18:26.883Z,81.60
2017-07-19T05:20:55.214Z,81.80
2017-07-19T05:23:23.590Z,81.40
2017-07-19T05:25:51.913Z,81.60
2017-07-19T05:28:20.233Z,81.00
2017-07-19T05:30:48.584Z,81.10
2017-07-19T05:33:16.922Z,80.20
2017-07-19T05:35:45.293Z,81.40
2017-07-19T05:38:14.882Z,81.80
2017-07-19T05:40:43.228Z,81.20
2017-07-19T05:43:11.580Z,80.50
2017-07-19T05:45:39.929Z,80.30
2017-07-19T05:48:08.256Z,79.70
2017-07-19T05:50:36.622Z,79.50
2017-07-19T05:53:05.293Z,79.00
2017-07-19T05:55:33.621Z,78.20
2017-07-19T05:58:01.976Z,76.70
2017-07-19T06:00:30.294Z,76.70
2017-07-19T06:02:58.654Z,76.50
2017-07-19T06:05:27.137Z,76.50
2017-07-19T06:07:55.480Z,76.90
2017-07-19T06:10:23.874Z,76.70
2017-07-19T06:12:52.241Z,74.70
2017-07-19T06:15:20.569Z,75.00
2017-07-19T06:17:49.022Z,74.50
2017-07-19T06:20:17.378Z,74.20
2017-07-19T06:22:45.711Z,74.60
2017-07-19T06:25:14.074Z,71.60
2017-07-19T06:27:42.406Z,71.20
2017-07-19T06:30:10.748Z,70.50
2017-07-19T06:32:39.083Z,70.40
2017-07-19T06:35:07.436Z,69.00
2017-07-19T06:37:35.761Z,69.30
2017-07-19T06:40:04.119Z,69.00
2017-07-19T06:42:32.441Z,69.30
2017-07-19T06:45:00.771Z,67.60
2017-07-19T06:47:29.131Z,69.40
2017-07-19T06:49:57.469Z,67.20
2017-07-19T06:52:25.835Z,67.30
2017-07-19T06:54:54.178Z,67.30
2017-07-19T06:57:22.514Z,65.50
2017-07-19T06:59:50.848Z,64.60
2017-07-19T07:02:19.207Z,65.20
2017-07-19T07:04:47.534Z,63.50
2017-07-19T07:07:15.874Z,64.70
2017-07-19T07:09:44.207Z,64.40
2017-07-19T07:12:12.532Z,63.80
2017-07-19T07:14:40.891Z,63.20
2017-07-19T07:17:09.218Z,62.60
2017-07-19T07:19:37.561Z,60.80
2017-07-19T07:22:05.882Z,60.50
2017-07-19T07:24:34.224Z,60.50
2017-07-19T07:27:02.611Z,60.20
2017-07-19T07:29:30.965Z,59.10
2017-07-19T07:31:59.276Z,57.70
2017-07-19T07:34:27.624Z,57.70
2017-07-19T07:36:55.960Z,57.50
2017-07-19T07:39:24.329Z,58.90
2017-07-19T07:41:52.673Z,56.70
2017-07-19T07:44:21.000Z,57.00
2017-07-19T07:46:49.373Z,55.10
2017-07-19T07:49:17.700Z,57.30
2017-07-19T07:51:46.053Z,57.70
2017-07-19T07:54:14.383Z,56.30
2017-07-19T07:56:42.724Z,56.20
2017-07-19T07:59:11.042Z,56.60
2017-07-19T08:01:39.407Z,57.50
2017-07-19T08:04:07.724Z,57.50
2017-07-19T08:06:36.037Z,57.20
2017-07-19T08:09:04.369Z,55.30
2017-07-19T08:11:32.701Z,55.50
2017-07-19T08:14:01.056Z,54.00
2017-07-19T08:16:29.379Z,52.80
2017-07-19T08:21:25.178Z,52.80
2017-07-19T08:23:53.522Z,52.30
2017-07-19T08:26:21.863Z,53.40
2017-07-19T08:28:50.210Z,51.60
2017-07-19T08:31:18.548Z,48.10
2017-07-19T08:33:46.873Z,47.30
2017-07-19T08:36:15.219Z,50.60
2017-07-19T08:38:43.586Z,47.40
2017-07-19T08:41:11.920Z,48.70
2017-07-19T08:43:40.253Z,47.80
2017-07-19T08:46:08.594Z,46.00
2017-07-19T08:48:36.905Z,47.40
2017-07-19T08:51:05.239Z,47.80
2017-07-19T08:53:33.556Z,49.40
2017-07-19T08:56:01.904Z,49.30
2017-07-19T08:58:30.229Z,48.60
2017-07-19T09:00:59.482Z,46.60
2017-07-19T09:03:27.809Z,44.80
2017-07-19T09:05:56.134Z,48.50
2017-07-19T09:08:24.594Z,47.90
2017-07-19T09:10:52.916Z,47.50
2017-07-19T09:13:21.258Z,47.50
2017-07-19T09:15:49.582Z,47.60
2017-07-19T09:18:17.925Z,47.00
2017-07-19T09:20:46.244Z,46.00
2017-07-19T09:23:14.719Z,44.90
2017-07-19T09:25:43.026Z,43.20
2017-07-19T09:28:11.367Z,43.00
2017-07-19T09:30:39.715Z,43.30
2017-07-19T09:33:08.023Z,41.60
2017-07-19T09:35:36.353Z,43.40
2017-07-19T09:38:04.756Z,41.70
2017-07-19T09:40:33.119Z,40.60
2017-07-19T09:43:01.499Z,42.20
2017-07-19T09:45:29.836Z,42.30
2017-07-19T09:47:58.146Z,40.10
2017-07-19T09:50:26.479Z,40.60
2017-07-19T09:52:54.906Z,40.50
2017-07-19T09:55:23.236Z,41.10
2017-07-19T09:57:51.605Z,39.60
2017-07-19T10:00:19.936Z,41.20
2017-07-19T10:02:48.288Z,39.90
2017-07-19T10:05:16.629Z,41.00
2017-07-19T10:13:45.089Z,39.30
2017-07-19T10:16:13.434Z,40.20
2017-07-19T10:18:41.744Z,39.50
2017-07-19T10:21:10.065Z,40.80
2017-07-19T10:23:38.413Z,39.30
2017-07-19T10:26:06.717Z,40.50
2017-07-19T10:28:35.092Z,39.70
2017-07-19T10:31:03.441Z,39.00
2017-07-19T10:33:31.770Z,38.60
2017-07-19T10:36:00.093Z,39.30
2017-07-19T10:38:28.441Z,36.90
2017-07-19T10:40:56.753Z,35.30
2017-07-19T10:43:25.104Z,38.40
2017-07-19T10:45:53.475Z,39.10
2017-07-19T10:48:21.807Z,39.50
2017-07-19T10:50:50.136Z,38.20
2017-07-19T10:53:18.453Z,38.60
2017-07-19T10:55:46.795Z,37.00
2017-07-19T10:58:15.118Z,35.80
2017-07-19T11:00:43.521Z,39.70
2017-07-19T11:03:11.854Z,38.60
2017-07-19T11:05:40.193Z,40.10
2017-07-19T11:08:08.502Z,39.00
2017-07-19T11:10:36.894Z,38.70
2017-07-19T11:13:05.523Z,36.70
2017-07-19T11:15:34.714Z,36.90
2017-07-19T11:18:03.046Z,37.30
2017-07-19T11:20:31.406Z,40.50
2017-07-19T11:22:59.738Z,39.40
2017-07-19T11:25:28.060Z,37.00
2017-07-19T11:27:56.399Z,38.80
2017-07-19T11:30:24.712Z,36.20
2017-07-19T11:32:53.056Z,37.20
2017-07-19T11:35:21.378Z,35.30
2017-07-19T11:37:49.729Z,37.40
2017-07-19T11:40:18.041Z,39.40
2017-07-19T11:42:46.393Z,36.60
2017-07-19T11:45:14.714Z,38.20
2017-07-19T11:47:43.053Z,36.60
2017-07-19T11:50:11.377Z,33.90
2017-07-19T11:52:39.726Z,35.40
2017-07-19T11:55:08.041Z,39.60
2017-07-19T11:57:36.358Z,35.10
2017-07-19T12:00:04.734Z,34.50
2017-07-19T12:02:33.102Z,35.70
2017-07-19T12:05:01.455Z,34.80
2017-07-19T12:07:29.802Z,36.70
2017-07-19T12:09:58.153Z,33.90
2017-07-19T12:12:26.502Z,36.10
2017-07-19T12:14:54.933Z,34.50
2017-07-19T12:17:23.280Z,34.60
2017-07-19T12:19:51.676Z,37.30
2017-07-19T12:22:20.030Z,35.60
2017-07-19T12:24:48.392Z,34.80
2017-07-19T12:29:45.099Z,34.30
2017-07-19T12:32:13.498Z,34.90
2017-07-19T12:34:41.901Z,34.40
2017-07-19T12:37:10.351Z,34.40
2017-07-19T12:39:38.916Z,34.10
2017-07-19T12:42:07.487Z,34.90
2017-07-19T12:44:35.916Z,35.90
2017-07-19T12:47:04.341Z,35.80
2017-07-19T12:49:32.841Z,33.70
2017-07-19T12:52:01.279Z,36.60
2017-07-19T12:54:29.656Z,36.00
2017-07-19T12:56:58.085Z,35.00
2017-07-19T12:59:26.521Z,37.10
2017-07-19T13:01:54.909Z,34.00
2017-07-19T13:04:23.336Z,36.30
2017-07-19T13:06:51.752Z,34.40
2017-07-19T13:09:20.182Z,35.50
2017-07-19T13:11:48.605Z,35.30
2017-07-19T13:14:16.977Z,34.30
2017-07-19T13:16:45.393Z,35.10
2017-07-19T13:19:13.817Z,36.10
2017-07-19T13:21:42.196Z,33.30
2017-07-19T13:24:10.598Z,34.30
2017-07-19T13:26:39.017Z,34.60
2017-07-19T13:29:07.389Z,39.50
2017-07-19T13:31:35.813Z,34.30
2017-07-19T13:34:04.200Z,34.70
2017-07-19T13:36:32.641Z,35.30
2017-07-19T13:39:01.020Z,35.00
2017-07-19T13:41:29.472Z,35.30
2017-07-19T13:43:57.902Z,32.60
2017-07-19T13:46:26.334Z,32.00
2017-07-19T13:48:54.806Z,33.30
2017-07-19T13:51:23.274Z,32.40
2017-07-19T13:53:51.641Z,30.70
2017-07-19T13:56:20.061Z,31.90
2017-07-19T13:58:48.482Z,30.80
2017-07-19T14:01:16.877Z,34.50
2017-07-19T14:03:45.385Z,32.60
2017-07-19T14:06:13.996Z,33.70
2017-07-19T14:08:42.400Z,34.70
2017-07-19T14:11:11.191Z,34.00
2017-07-19T14:13:39.667Z,33.20
2017-07-19T14:16:08.092Z,34.40
2017-07-19T14:18:36.511Z,33.50
2017-07-19T14:21:04.920Z,33.00
2017-07-19T14:23:33.363Z,34.70
2017-07-19T14:26:01.773Z,31.70
2017-07-19T14:28:30.198Z,33.40
2017-07-19T14:30:58.595Z,32.30
2017-07-19T14:33:27.014Z,35.40
2017-07-19T14:35:55.429Z,33.30
2017-07-19T14:38:23.831Z,32.00
2017-07-19T14:40:52.507Z,32.50
2017-07-19T14:43:21.873Z,34.00
2017-07-19T14:45:50.340Z,34.20
2017-07-19T14:48:18.794Z,35.00
2017-07-19T14:50:47.257Z,34.10
2017-07-19T14:53:15.632Z,33.30
2017-07-19T14:55:44.126Z,35.10
2017-07-19T14:58:12.556Z,32.00
2017-07-19T15:00:40.958Z,32.60
2017-07-19T15:03:09.387Z,33.30
2017-07-19T15:05:37.848Z,32.30
2017-07-19T15:08:06.237Z,34.80
2017-07-19T15:10:34.700Z,33.80
2017-07-19T15:13:03.146Z,33.60
2017-07-19T15:15:31.530Z,33.20
2017-07-19T15:18:00.030Z,34.30
2017-07-19T15:20:28.410Z,34.60
2017-07-19T15:22:56.859Z,34.90
2017-07-19T15:25:25.278Z,35.60
2017-07-19T15:27:53.678Z,33.50
2017-07-19T15:30:22.070Z,34.90
2017-07-19T15:32:50.505Z,35.40
2017-07-19T15:35:18.932Z,35.60
2017-07-19T15:37:47.400Z,35.40
2017-07-19T15:40:15.827Z,35.20
2017-07-19T15:42:44.323Z,34.10
2017-07-19T15:45:12.708Z,34.30
2017-07-19T15:47:41.103Z,35.30
2017-07-19T15:50:09.827Z,35.70
2017-07-19T15:52:38.239Z,35.40
2017-07-19T15:55:06.666Z,35.40
2017-07-19T15:57:38.743Z,35.90
2017-07-19T16:00:07.200Z,35.60
2017-07-19T16:02:35.678Z,32.80
2017-07-19T16:05:04.089Z,33.90
2017-07-19T16:07:32.459Z,34.70
2017-07-19T16:10:00.923Z,34.20
2017-07-19T16:12:29.317Z,34.60
2017-07-19T16:14:57.762Z,37.00
2017-07-19T16:17:26.261Z,35.40
2017-07-19T16:19:54.669Z,36.50
2017-07-19T16:22:23.133Z,34.70
2017-07-19T16:24:51.514Z,35.20
2017-07-19T16:27:19.967Z,36.10
2017-07-19T16:29:48.375Z,36.00
2017-07-19T16:32:16.800Z,36.40
2017-07-19T16:34:45.259Z,35.70
2017-07-19T16:37:13.707Z,37.20
2017-07-19T16:39:42.082Z,38.10
2017-07-19T16:42:10.506Z,36.00
2017-07-19T16:44:39.834Z,34.50
2017-07-19T16:47:20.858Z,33.50
2017-07-19T16:49:49.279Z,33.80
2017-07-19T16:52:17.694Z,34.50
2017-07-19T16:54:46.166Z,34.80
2017-07-19T16:57:14.590Z,34.20
2017-07-19T16:59:43.066Z,34.70
2017-07-19T17:02:11.530Z,34.70
2017-07-19T17:04:39.959Z,34.10
2017-07-19T17:07:08.374Z,35.30
2017-07-19T17:09:36.781Z,34.70
2017-07-19T17:12:05.162Z,36.40
2017-07-19T17:14:33.666Z,36.50
2017-07-19T17:17:02.128Z,37.90
2017-07-19T17:19:30.634Z,39.80
2017-07-19T17:21:59.115Z,40.30
2017-07-19T17:24:27.628Z,40.90
2017-07-19T17:26:56.113Z,41.80
2017-07-19T17:29:24.564Z,42.90
2017-07-19T17:31:53.051Z,44.00
2017-07-19T17:34:21.528Z,44.00
2017-07-19T17:36:49.952Z,45.30
2017-07-19T17:39:18.370Z,44.50
2017-07-19T17:41:46.839Z,44.70
2017-07-19T17:44:15.267Z,44.70
2017-07-19T17:46:43.690Z,45.00
2017-07-19T17:49:12.024Z,45.20
2017-07-19T17:51:40.385Z,46.10
2017-07-19T17:54:08.725Z,47.20
2017-07-19T17:56:37.094Z,43.90
2017-07-19T17:59:12.406Z,42.40
2017-07-19T18:01:40.792Z,40.80
2017-07-19T18:04:09.141Z,40.70
2017-07-19T18:06:37.491Z,41.70
2017-07-19T18:09:05.829Z,44.90
2017-07-19T18:11:34.371Z,48.50
2017-07-19T18:14:02.729Z,48.70
2017-07-19T18:16:31.153Z,50.40
2017-07-19T18:18:59.508Z,51.80
2017-07-19T18:21:27.858Z,53.80
2017-07-19T18:23:56.254Z,53.20
2017-07-19T18:26:24.589Z,55.80
2017-07-19T18:28:52.954Z,59.40
2017-07-19T18:31:21.380Z,61.30
2017-07-19T18:33:49.724Z,63.20
2017-07-19T18:36:21.341Z,64.20
2017-07-19T18:38:49.676Z,65.60
2017-07-19T18:41:18.063Z,65.30
2017-07-19T18:43:46.400Z,62.20
2017-07-19T18:46:14.750Z,70.00
2017-07-19T18:48:43.111Z,68.60
2017-07-19T18:51:11.464Z,69.50
2017-07-19T18:53:39.789Z,68.90
2017-07-19T18:56:08.156Z,66.90
2017-07-19T18:58:36.488Z,71.90
2017-07-19T19:01:04.845Z,72.20
2017-07-19T19:03:33.167Z,70.40
2017-07-19T19:06:01.503Z,69.10
2017-07-19T19:08:29.836Z,66.50
2017-07-19T19:10:58.188Z,66.80
2017-07-19T19:13:26.508Z,68.80
2017-07-19T19:15:54.827Z,71.00
2017-07-19T19:18:23.176Z,70.00
2017-07-19T19:20:51.504Z,71.40
2017-07-19T19:23:19.856Z,70.20
2017-07-19T19:25:48.204Z,70.50
2017-07-19T19:28:16.558Z,70.90
2017-07-19T19:30:45.200Z,70.50
2017-07-19T19:33:13.556Z,70.70
2017-07-19T19:35:41.871Z,72.10
2017-07-19T19:38:10.219Z,72.90
2017-07-19T19:40:38.542Z,72.50
2017-07-19T19:43:07.606Z,71.70
2017-07-19T19:45:35.929Z,72.50
2017-07-19T19:48:04.292Z,72.40
2017-07-19T19:50:32.633Z,72.30
2017-07-19T19:53:00.954Z,72.60
2017-07-19T19:55:29.293Z,72.20
2017-07-19T19:57:57.610Z,71.90
2017-07-19T20:00:25.956Z,71.50
2017-07-19T20:02:54.272Z,72.10
2017-07-19T20:05:22.631Z,72.30
2017-07-19T20:07:50.946Z,71.90
2017-07-19T20:10:19.277Z,72.00
2017-07-19T20:12:47.601Z,72.50
2017-07-19T20:15:15.949Z,73.30
2017-07-19T20:17:44.270Z,73.10
2017-07-19T20:20:12.635Z,73.00
2017-07-19T20:22:40.967Z,72.90
2017-07-19T20:25:10.285Z,74.20
2017-07-19T20:27:38.625Z,74.20
2017-07-19T20:30:06.951Z,75.20
2017-07-19T20:35:35.758Z,75.00
2017-07-19T20:38:04.214Z,75.70
2017-07-19T20:40:32.555Z,75.90
2017-07-19T20:43:00.969Z,75.50
2017-07-19T20:45:29.293Z,76.20
2017-07-19T20:47:57.634Z,76.40
2017-07-19T20:50:25.960Z,75.80
2017-07-19T20:52:54.390Z,75.70
2017-07-19T20:55:22.704Z,75.70
2017-07-19T20:57:51.994Z,76.00
2017-07-19T21:00:20.333Z,76.30
2017-07-19T21:02:48.662Z,76.10
2017-07-19T21:05:17.038Z,75.90
2017-07-19T21:07:45.378Z,76.20
2017-07-19T21:10:17.533Z,76.10
2017-07-19T21:12:45.903Z,76.00
2017-07-19T21:15:14.289Z,76.20
2017-07-19T21:17:42.642Z,75.40
2017-07-19T21:20:11.036Z,76.10
2017-07-19T21:22:39.416Z,77.10
2017-07-19T21:25:07.831Z,77.00
2017-07-19T21:27:36.183Z,77.20
2017-07-19T21:30:04.552Z,76.60
2017-07-19T21:32:32.948Z,76.90
2017-07-19T21:35:01.310Z,76.80
2017-07-19T21:37:29.687Z,78.00
2017-07-19T21:39:58.062Z,79.70
2017-07-19T21:42:26.461Z,82.70
2017-07-19T21:44:54.827Z,81.80
2017-07-19T21:47:23.211Z,79.50
2017-07-19T21:49:51.581Z,79.70
2017-07-19T21:52:19.979Z,78.90
2017-07-19T21:54:48.355Z,78.90
2017-07-19T21:57:16.717Z,78.70
2017-07-19T21:59:45.106Z,79.70
2017-07-19T22:02:24.302Z,79.70
2017-07-19T22:04:52.688Z,79.70
2017-07-19T22:07:21.045Z,79.00
2017-07-19T22:09:49.436Z,79.20
2017-07-19T22:12:17.802Z,80.80
2017-07-19T22:14:46.189Z,78.20
2017-07-19T22:17:14.544Z,77.10
2017-07-19T22:19:42.995Z,75.80
2017-07-19T22:22:11.369Z,75.00
2017-07-19T22:24:39.760Z,75.00
2017-07-19T22:27:08.140Z,74.10
2017-07-19T22:29:36.510Z,74.90
2017-07-19T22:32:04.904Z,74.40
2017-07-19T22:34:37.902Z,75.30
2017-07-19T22:37:06.297Z,74.00
2017-07-19T22:39:34.674Z,73.30
2017-07-19T22:42:03.060Z,74.80
2017-07-19T22:44:31.570Z,73.10
2017-07-19T22:46:59.974Z,73.60
2017-07-19T22:49:28.332Z,72.80
2017-07-19T22:51:56.734Z,74.10
2017-07-19T22:54:25.090Z,73.00
2017-07-19T22:56:53.454Z,72.70
2017-07-19T22:59:22.822Z,73.10
2017-07-19T23:01:51.192Z,72.50
2017-07-19T23:04:19.575Z,73.10
2017-07-19T23:06:47.941Z,72.00
2017-07-19T23:09:16.336Z,72.00
2017-07-19T23:11:44.719Z,71.80
2017-07-19T23:14:13.370Z,71.70
2017-07-19T23:16:52.783Z,71.40
2017-07-19T23:19:21.153Z,71.80
2017-07-19T23:21:49.540Z,71.40
2017-07-19T23:24:17.947Z,72.10
2017-07-19T23:26:46.317Z,72.00
2017-07-19T23:29:14.717Z,72.70
2017-07-19T23:31:43.090Z,72.20
2017-07-19T23:34:11.463Z,72.20
2017-07-19T23:36:39.853Z,72.40
2017-07-19T23:39:08.231Z,74.80
2017-07-19T23:41:36.636Z,76.20
2017-07-19T23:44:04.996Z,75.50
2017-07-19T23:46:33.380Z,77.20
2017-07-19T23:49:01.752Z,79.00
2017-07-19T23:51:30.158Z,79.00
2017-07-19T23:53:58.522Z,78.50
2017-07-19T23:56:26.899Z,77.30
2017-07-19T23:58:55.280Z,79.50
